Time;durP1;ratioP1;P1;durP2;ratioP2;P2;SDS_P1;SDS_P2;PMS_P1;PMS_P2;Temp;Humidity;BMP_temperature;BMP_pressure;BME280_temperature;BME280_humidity;BME280_pressure;Samples;Min_cycle;Max_cycle;Signal;HPM_P1;HPM_P2
2022/01/25 00:28:41;;;;;;;19.10;9.45;;;4.60;81.50;;;;;;4994717;28;20046;-73
2022/01/25 00:31:10;;;;;;;17.52;8.82;;;4.50;81.50;;;;;;4993147;28;20040;-74
2022/01/25 00:33:38;;;;;;;12.80;6.95;;;4.60;81.90;;;;;;4992670;28;20026;-74
2022/01/25 00:36:07;;;;;;;12.10;6.22;;;4.50;81.30;;;;;;4994153;28;20047;-74
2022/01/25 00:38:33;;;;;;;14.75;7.40;;;4.60;81.50;;;;;;4993904;28;20413;-73
2022/01/25 00:40:58;;;;;;;15.75;7.80;;;4.70;81.80;;;;;;4995076;28;20066;-74
2022/01/25 00:43:26;;;;;;;17.25;8.50;;;4.60;81.30;;;;;;4997656;28;20060;-74
2022/01/25 00:45:56;;;;;;;15.27;7.93;;;4.60;81.60;;;;;;5013073;28;20084;-74
2022/01/25 00:48:32;;;;;;;13.18;6.88;;;4.60;81.50;;;;;;5009773;28;20045;-74
2022/01/25 00:51:16;;;;;;;17.00;8.27;;;4.70;81.70;;;;;;5001380;28;20038;-74
2022/01/25 00:56:20;;;;;;;12.73;6.75;;;4.70;81.70;;;;;;5000370;28;20120;-74
2022/01/25 00:58:46;;;;;;;12.43;7.07;;;4.70;81.40;;;;;;4999807;28;20065;-74
2022/01/25 01:01:12;;;;;;;14.45;7.00;;;4.80;81.40;;;;;;4996324;28;20058;-74
2022/01/25 01:03:37;;;;;;;13.50;7.03;;;4.80;81.30;;;;;;4999267;28;20497;-74
2022/01/25 01:06:05;;;;;;;13.55;6.97;;;4.90;81.40;;;;;;5000122;28;20062;-74
2022/01/25 01:08:31;;;;;;;21.08;9.55;;;4.90;81.10;;;;;;5000025;28;20030;-74
2022/01/25 01:10:59;;;;;;;15.15;7.50;;;4.90;81.30;;;;;;5000080;28;20037;-73
2022/01/25 01:16:29;;;;;;;17.38;8.98;;;4.80;81.10;;;;;;4997642;28;20030;-74
2022/01/25 01:47:36;;;;;;;16.15;7.72;;;4.40;82.30;;;;;;4999637;28;20547;-74
2022/01/25 01:50:09;;;;;;;14.95;6.88;;;4.40;82.40;;;;;;4999628;28;20041;-74
2022/01/25 01:52:34;;;;;;;18.67;8.02;;;4.50;82.30;;;;;;4997990;28;20025;-74
2022/01/25 01:55:00;;;;;;;11.43;6.53;;;4.50;82.50;;;;;;4996863;28;20023;-73
2022/01/25 01:57:25;;;;;;;13.20;7.10;;;4.40;82.20;;;;;;4997856;28;20041;-73
2022/01/25 01:59:53;;;;;;;13.50;7.93;;;4.60;82.00;;;;;;4999142;28;20414;-73
2022/01/25 02:02:19;;;;;;;15.13;7.45;;;4.60;82.30;;;;;;4998994;28;20109;-74
2022/01/25 02:04:45;;;;;;;15.05;7.82;;;4.60;82.20;;;;;;4996457;28;20416;-73
2022/01/25 02:07:11;;;;;;;16.60;7.60;;;4.50;81.90;;;;;;4994981;28;20026;-73
2022/01/25 02:09:36;;;;;;;12.57;6.95;;;4.40;82.20;;;;;;4998237;28;20037;-72
2022/01/25 02:12:02;;;;;;;12.35;6.93;;;4.40;82.10;;;;;;4999032;28;20038;-72
2022/01/25 02:14:28;;;;;;;13.40;6.97;;;4.50;82.10;;;;;;4997597;28;20026;-73
2022/01/25 02:17:06;;;;;;;15.75;8.10;;;4.50;82.40;;;;;;4999087;28;20026;-72
2022/01/25 02:24:51;;;;;;;11.52;6.18;;;4.60;82.20;;;;;;5009412;28;20567;-73
2022/01/25 02:27:16;;;;;;;12.50;6.43;;;4.70;82.30;;;;;;4995610;28;20117;-73
2022/01/25 02:29:43;;;;;;;12.73;6.40;;;4.60;81.90;;;;;;4995892;28;20061;-74
2022/01/25 02:32:08;;;;;;;17.70;8.40;;;4.70;82.30;;;;;;4996109;28;20062;-74
2022/01/25 02:34:34;;;;;;;13.48;6.95;;;4.60;81.90;;;;;;4996360;28;20049;-74
2022/01/25 02:37:04;;;;;;;13.93;7.45;;;4.50;82.10;;;;;;4993791;28;20112;-74
2022/01/25 02:39:31;;;;;;;12.93;6.80;;;4.40;82.10;;;;;;4997123;28;20120;-74
2022/01/25 02:41:57;;;;;;;13.98;7.50;;;4.40;82.00;;;;;;4998500;28;20034;-74
2022/01/25 02:44:26;;;;;;;14.27;7.68;;;4.30;83.40;;;;;;4995441;28;20025;-74
2022/01/25 02:49:19;;;;;;;16.88;8.70;;;4.20;82.70;;;;;;4995862;28;20040;-74
2022/01/25 02:51:48;;;;;;;11.40;6.50;;;4.20;82.80;;;;;;4993268;28;20026;-74
2022/01/25 02:54:16;;;;;;;11.27;5.63;;;4.10;82.90;;;;;;4998749;28;20031;-74
2022/01/25 02:56:44;;;;;;;10.50;6.30;;;4.00;82.60;;;;;;4998247;28;20031;-74
2022/01/25 02:59:12;;;;;;;10.93;6.05;;;4.00;82.80;;;;;;5000231;28;20068;-74
2022/01/25 03:01:38;;;;;;;9.57;5.20;;;4.00;83.10;;;;;;4995677;28;20050;-74
2022/01/25 03:04:05;;;;;;;12.32;6.25;;;4.10;82.80;;;;;;4993298;28;20105;-74
2022/01/25 03:06:32;;;;;;;10.90;5.53;;;4.10;82.80;;;;;;4992566;28;20018;-74
2022/01/25 03:08:58;;;;;;;8.77;5.07;;;4.10;82.50;;;;;;4994807;28;20405;-74
2022/01/25 03:11:25;;;;;;;11.05;6.05;;;4.10;81.90;;;;;;4995497;28;20065;-74
2022/01/25 03:13:54;;;;;;;8.70;4.97;;;4.10;82.30;;;;;;4995289;28;20046;-74
2022/01/25 03:21:54;;;;;;;9.73;4.70;;;4.20;83.00;;;;;;5009036;28;20117;-74
2022/01/25 03:24:20;;;;;;;9.82;4.80;;;4.10;83.10;;;;;;5005601;28;20026;-73
2022/01/25 03:26:45;;;;;;;9.30;4.28;;;4.00;82.00;;;;;;4998701;28;20036;-74
2022/01/25 03:29:11;;;;;;;7.70;4.40;;;4.00;82.50;;;;;;4995423;28;20130;-74
2022/01/25 03:31:36;;;;;;;11.18;5.90;;;4.20;83.40;;;;;;4995498;28;20504;-73
2022/01/25 03:34:03;;;;;;;8.60;4.68;;;4.30;82.50;;;;;;4993195;28;20046;-74
2022/01/25 03:36:28;;;;;;;9.88;5.63;;;4.20;82.20;;;;;;4994070;28;20129;-74
2022/01/25 03:38:54;;;;;;;7.60;4.53;;;4.20;82.40;;;;;;4994551;28;20565;-74
2022/01/25 03:41:22;;;;;;;9.70;4.88;;;4.30;82.50;;;;;;4995092;28;20034;-74
2022/01/25 03:43:53;;;;;;;10.57;5.65;;;4.30;82.00;;;;;;4995285;28;20481;-74
2022/01/25 03:46:30;;;;;;;11.88;6.47;;;4.30;81.40;;;;;;4995269;28;20029;-74
2022/01/25 03:51:40;;;;;;;8.07;4.20;;;3.80;82.20;;;;;;4996403;28;20038;-74
2022/01/25 03:54:06;;;;;;;11.90;6.22;;;3.90;83.20;;;;;;4997817;28;20405;-74
2022/01/25 03:56:32;;;;;;;8.85;4.78;;;4.00;83.30;;;;;;4996387;28;20034;-74
2022/01/25 03:58:58;;;;;;;10.32;5.18;;;3.90;82.70;;;;;;4997159;28;20141;-74
2022/01/25 04:01:24;;;;;;;9.15;5.10;;;4.00;83.10;;;;;;4992852;28;20039;-74
2022/01/25 04:03:59;;;;;;;7.30;4.05;;;3.90;82.30;;;;;;4994623;28;20166;-74
2022/01/25 04:06:25;;;;;;;8.30;4.40;;;3.80;82.30;;;;;;4994259;28;20058;-74
2022/01/25 04:08:51;;;;;;;6.50;3.85;;;3.80;82.70;;;;;;4994918;28;20031;-74
2022/01/25 04:11:17;;;;;;;6.97;4.05;;;3.70;82.90;;;;;;4994977;28;20030;-74
2022/01/25 04:13:43;;;;;;;8.10;4.07;;;3.80;83.30;;;;;;4994985;28;20551;-74
2022/01/25 04:16:18;;;;;;;7.20;4.07;;;3.90;83.80;;;;;;4995087;28;20244;-74
2022/01/25 04:26:50;;;;;;;6.75;3.97;;;3.90;83.00;;;;;;4998495;28;20088;-73
2022/01/25 04:29:16;;;;;;;8.20;4.03;;;4.00;83.10;;;;;;4998509;28;20038;-74
2022/01/25 04:31:42;;;;;;;7.47;4.38;;;4.10;82.80;;;;;;4998541;28;20535;-74
2022/01/25 04:50:25;;;;;;;7.22;3.97;;;4.00;81.70;;;;;;4997978;28;20036;-73
2022/01/25 04:53:02;;;;;;;7.78;4.35;;;3.90;81.70;;;;;;4998076;28;20412;-73
2022/01/25 04:55:38;;;;;;;7.85;3.90;;;3.90;82.60;;;;;;4998102;28;20018;-73
2022/01/25 04:58:12;;;;;;;9.55;5.28;;;3.90;82.20;;;;;;4996355;28;20485;-73
2022/01/25 05:00:38;;;;;;;6.93;4.18;;;3.90;82.30;;;;;;4996206;28;20025;-74
2022/01/25 05:03:14;;;;;;;10.43;5.78;;;3.80;82.30;;;;;;4997577;28;20046;-74
2022/01/25 05:06:09;;;;;;;6.60;3.85;;;3.80;82.90;;;;;;4997402;28;20073;-74
2022/01/25 05:08:40;;;;;;;7.60;4.28;;;3.80;82.70;;;;;;4997497;28;20049;-73
2022/01/25 05:11:15;;;;;;;6.97;3.97;;;3.80;82.30;;;;;;4997641;28;20033;-74
2022/01/25 05:16:15;;;;;;;6.97;3.97;;;3.80;82.70;;;;;;4996054;28;20069;-74
2022/01/25 05:18:47;;;;;;;8.35;4.40;;;3.90;82.90;;;;;;4995017;28;20154;-74
2022/01/25 05:23:57;;;;;;;8.15;4.18;;;3.90;82.60;;;;;;4997603;28;20409;-73
2022/01/25 05:26:25;;;;;;;9.90;5.07;;;4.00;82.40;;;;;;4996971;28;20033;-74
2022/01/25 05:28:50;;;;;;;7.30;4.18;;;3.90;82.60;;;;;;4997253;28;20473;-73
2022/01/25 05:31:16;;;;;;;7.47;4.30;;;4.00;82.70;;;;;;4996530;28;20053;-74
2022/01/25 05:33:42;;;;;;;7.40;3.95;;;3.90;82.10;;;;;;4994568;28;20037;-74
2022/01/25 05:36:07;;;;;;;6.70;3.75;;;3.90;82.40;;;;;;4996931;28;20089;-74
2022/01/25 05:38:33;;;;;;;6.72;4.00;;;4.00;83.10;;;;;;4997052;28;20041;-74
2022/01/25 05:41:01;;;;;;;7.15;4.22;;;4.00;83.00;;;;;;4996920;28;20027;-74
2022/01/25 05:46:16;;;;;;;7.45;4.00;;;4.00;82.20;;;;;;4996549;28;20080;-76
2022/01/25 05:48:43;;;;;;;8.25;4.55;;;4.00;82.60;;;;;;4994298;28;20063;-74
2022/01/25 05:51:10;;;;;;;9.00;4.65;;;4.20;83.00;;;;;;4996958;28;20068;-74
2022/01/25 05:53:36;;;;;;;9.02;4.43;;;4.10;82.30;;;;;;4996777;28;20022;-73
2022/01/25 05:56:03;;;;;;;9.23;4.55;;;4.00;82.00;;;;;;4995593;28;20484;-74
2022/01/25 05:58:29;;;;;;;7.63;4.25;;;4.00;82.80;;;;;;4996825;28;20132;-74
2022/01/25 06:00:55;;;;;;;7.65;4.07;;;4.00;82.90;;;;;;4994624;28;20113;-74
2022/01/25 06:03:21;;;;;;;8.40;4.68;;;4.00;82.50;;;;;;4995862;28;20509;-74
2022/01/25 06:05:47;;;;;;;10.50;5.10;;;3.90;82.50;;;;;;4996539;28;20038;-74
2022/01/25 06:08:12;;;;;;;6.95;4.35;;;3.90;82.70;;;;;;4995177;28;20109;-74
2022/01/25 06:10:38;;;;;;;8.55;4.70;;;4.00;83.20;;;;;;4996793;28;20493;-74
2022/01/25 06:13:04;;;;;;;7.50;4.43;;;4.10;82.80;;;;;;4994770;28;20089;-74
2022/01/25 06:15:30;;;;;;;7.82;4.25;;;4.20;82.50;;;;;;4995708;28;20030;-73
2022/01/25 06:17:56;;;;;;;9.23;4.75;;;4.20;81.90;;;;;;4996077;28;20041;-73
2022/01/25 06:20:22;;;;;;;6.30;3.75;;;4.10;81.50;;;;;;4996291;28;20026;-74
2022/01/25 06:22:48;;;;;;;10.20;5.45;;;4.10;81.80;;;;;;4996327;28;20057;-74
2022/01/25 06:25:15;;;;;;;7.50;4.50;;;4.10;82.10;;;;;;4994812;28;20038;-74
2022/01/25 06:27:42;;;;;;;7.40;4.38;;;4.00;81.90;;;;;;4994008;28;20035;-74
2022/01/25 06:30:11;;;;;;;6.47;3.83;;;4.10;82.60;;;;;;4996145;28;20061;-75
2022/01/25 06:32:36;;;;;;;8.05;4.28;;;4.10;82.40;;;;;;4996123;28;20026;-74
2022/01/25 06:35:04;;;;;;;7.85;4.13;;;4.20;82.50;;;;;;4994407;28;20029;-73
2022/01/25 06:37:30;;;;;;;7.22;4.32;;;4.20;81.90;;;;;;4996021;28;20030;-73
2022/01/25 06:39:57;;;;;;;7.00;3.72;;;4.20;81.60;;;;;;4992051;28;20068;-74
2022/01/25 06:42:26;;;;;;;7.28;4.22;;;4.20;81.40;;;;;;4995562;28;20026;-74
2022/01/25 06:44:55;;;;;;;7.07;3.97;;;4.10;80.90;;;;;;4999034;28;20069;-74
2022/01/25 06:47:21;;;;;;;7.15;3.83;;;4.00;81.30;;;;;;5003419;28;20121;-74
2022/01/25 06:49:47;;;;;;;7.38;4.18;;;4.00;81.40;;;;;;5009659;28;20113;-74
2022/01/25 06:52:12;;;;;;;7.38;4.45;;;4.00;81.00;;;;;;4994363;28;20126;-74
2022/01/25 06:54:38;;;;;;;8.10;4.50;;;3.80;82.00;;;;;;4997627;28;20374;-74
2022/01/25 06:57:04;;;;;;;6.45;3.92;;;3.80;81.70;;;;;;4998272;28;20030;-74
2022/01/25 06:59:30;;;;;;;8.05;4.45;;;3.80;81.90;;;;;;4998423;28;20050;-73
2022/01/25 07:01:55;;;;;;;8.05;4.65;;;3.80;82.80;;;;;;4997493;28;20389;-74
2022/01/25 07:04:21;;;;;;;7.80;4.43;;;3.70;81.80;;;;;;4994180;28;20059;-74
2022/01/25 07:06:47;;;;;;;5.85;3.40;;;3.70;82.10;;;;;;4996590;28;20023;-74
2022/01/25 07:09:12;;;;;;;9.27;5.30;;;3.80;83.30;;;;;;4998242;28;20470;-74
2022/01/25 07:11:38;;;;;;;7.47;4.20;;;3.70;81.90;;;;;;4998142;28;20049;-74
2022/01/25 07:14:04;;;;;;;6.70;4.03;;;3.60;81.80;;;;;;4998148;28;20069;-74
2022/01/25 07:16:30;;;;;;;6.18;3.70;;;3.60;82.20;;;;;;4994956;28;20033;-73
2022/01/25 07:18:56;;;;;;;6.45;3.97;;;3.50;81.80;;;;;;4993336;28;20023;-74
2022/01/25 07:21:21;;;;;;;8.63;4.03;;;3.60;82.50;;;;;;4993450;28;20034;-73
2022/01/25 07:23:47;;;;;;;6.93;4.13;;;3.70;82.90;;;;;;4995457;28;20027;-74
2022/01/25 07:26:13;;;;;;;6.43;3.80;;;3.70;83.30;;;;;;4999721;28;20113;-73
2022/01/25 07:28:38;;;;;;;7.90;4.45;;;3.80;82.80;;;;;;5007883;28;20422;-73
2022/01/25 07:31:04;;;;;;;8.88;3.83;;;3.90;82.90;;;;;;4992808;28;20030;-74
2022/01/25 07:33:30;;;;;;;7.88;4.40;;;4.00;82.50;;;;;;5011533;28;20017;-72
2022/01/25 07:35:56;;;;;;;8.02;4.70;;;3.80;81.70;;;;;;5005716;28;20046;-74
2022/01/25 07:38:22;;;;;;;8.05;4.78;;;3.70;81.90;;;;;;5001042;28;20038;-73
2022/01/25 07:40:48;;;;;;;6.85;3.90;;;3.60;82.40;;;;;;4994769;28;20215;-73
2022/01/25 07:43:14;;;;;;;8.98;4.80;;;3.60;82.60;;;;;;4993796;28;20034;-73
2022/01/25 07:45:41;;;;;;;7.10;3.90;;;3.60;82.70;;;;;;4996198;28;20033;-72
2022/01/25 07:48:09;;;;;;;6.70;3.78;;;3.70;83.10;;;;;;4997476;28;20395;-73
2022/01/25 07:50:36;;;;;;;7.82;4.38;;;3.70;83.00;;;;;;4999910;28;20018;-73
2022/01/25 07:53:03;;;;;;;6.93;4.03;;;3.60;82.30;;;;;;5000160;28;20022;-73
2022/01/25 07:55:28;;;;;;;7.38;4.22;;;3.40;82.50;;;;;;4998264;28;20030;-73
2022/01/25 07:57:54;;;;;;;9.13;4.95;;;3.40;83.00;;;;;;4999228;28;20026;-72
2022/01/25 08:00:20;;;;;;;11.05;6.05;;;3.40;83.30;;;;;;4999631;28;20081;-74
2022/01/25 08:02:47;;;;;;;7.47;4.50;;;3.30;83.50;;;;;;5001589;28;20045;-73
2022/01/25 08:05:16;;;;;;;8.05;4.82;;;3.30;83.60;;;;;;5001288;28;20033;-73
2022/01/25 08:07:42;;;;;;;7.72;4.88;;;3.30;83.70;;;;;;5005403;28;20038;-73
2022/01/25 08:10:08;;;;;;;9.07;4.80;;;3.20;83.50;;;;;;5008792;28;20080;-73
2022/01/25 08:12:33;;;;;;;9.52;4.93;;;3.10;83.70;;;;;;4997514;28;20105;-73
2022/01/25 08:15:00;;;;;;;8.77;4.35;;;3.20;84.40;;;;;;5001229;28;20034;-73
2022/01/25 08:17:26;;;;;;;9.38;4.25;;;3.20;84.20;;;;;;5008397;28;20028;-72
2022/01/25 08:19:51;;;;;;;7.68;4.50;;;3.20;84.50;;;;;;5008095;28;20022;-72
2022/01/25 08:22:18;;;;;;;8.93;5.20;;;3.30;84.20;;;;;;5004680;28;20030;-72
2022/01/25 08:24:45;;;;;;;7.57;4.25;;;3.40;83.90;;;;;;5007338;28;20025;-73
2022/01/25 08:27:11;;;;;;;8.02;4.47;;;3.50;83.60;;;;;;5008162;28;20036;-72
2022/01/25 08:29:38;;;;;;;7.30;3.95;;;3.60;83.40;;;;;;5008126;28;20026;-73
2022/01/25 08:32:04;;;;;;;7.53;4.45;;;3.60;83.00;;;;;;5005325;28;20081;-73
2022/01/25 08:34:30;;;;;;;7.13;4.18;;;3.50;83.10;;;;;;5004542;28;20030;-72
2022/01/25 08:36:55;;;;;;;7.10;3.85;;;3.50;83.40;;;;;;5011915;28;20053;-72
2022/01/25 08:39:23;;;;;;;7.70;4.45;;;3.50;83.20;;;;;;5010366;28;20018;-73
2022/01/25 08:41:49;;;;;;;6.80;3.80;;;3.40;83.10;;;;;;5007002;28;20037;-74
2022/01/25 08:44:15;;;;;;;7.07;3.92;;;3.50;83.70;;;;;;5004822;28;20101;-74
2022/01/25 08:46:40;;;;;;;6.95;3.70;;;3.60;83.60;;;;;;5006019;28;20037;-75
2022/01/25 08:49:06;;;;;;;7.53;4.03;;;3.70;83.70;;;;;;5016711;28;20041;-69
2022/01/25 08:51:32;;;;;;;6.35;3.67;;;3.80;83.50;;;;;;5010702;28;20030;-70
2022/01/25 08:53:59;;;;;;;6.88;3.72;;;3.90;83.20;;;;;;5021160;28;20044;-70
2022/01/25 08:56:24;;;;;;;12.75;6.32;;;3.90;82.70;;;;;;5016410;28;20033;-70
2022/01/25 08:58:50;;;;;;;10.18;5.20;;;4.00;82.80;;;;;;5014993;28;20048;-68
2022/01/25 09:01:16;;;;;;;7.03;4.28;;;3.80;82.20;;;;;;5015987;28;20029;-69
2022/01/25 09:03:42;;;;;;;8.35;4.93;;;3.90;82.50;;;;;;4993827;28;20562;-69
2022/01/25 09:06:08;;;;;;;6.57;3.90;;;3.90;82.10;;;;;;5004040;28;20022;-68
2022/01/25 09:08:34;;;;;;;6.97;3.85;;;4.00;82.40;;;;;;5000362;28;20022;-64
2022/01/25 09:11:03;;;;;;;7.90;4.75;;;3.90;82.10;;;;;;5004899;28;20501;-63
2022/01/25 09:13:30;;;;;;;6.55;4.13;;;3.90;81.90;;;;;;5023723;28;20046;-64
2022/01/25 09:15:56;;;;;;;8.75;4.50;;;3.90;82.10;;;;;;5012287;28;20038;-63
2022/01/25 09:18:21;;;;;;;7.45;4.13;;;3.90;82.10;;;;;;5022359;28;20033;-63
2022/01/25 09:20:47;;;;;;;8.40;4.53;;;4.00;81.70;;;;;;5018380;28;20034;-63
2022/01/25 09:23:16;;;;;;;8.40;4.60;;;4.00;82.30;;;;;;5002426;28;20041;-63
2022/01/25 09:25:42;;;;;;;7.57;4.78;;;4.00;81.90;;;;;;5010814;28;20475;-63
2022/01/25 09:28:07;;;;;;;6.13;3.85;;;4.00;82.20;;;;;;5010940;28;20066;-64
2022/01/25 09:30:33;;;;;;;6.40;3.80;;;4.00;81.90;;;;;;5016142;28;20025;-64
2022/01/25 09:32:59;;;;;;;10.13;5.28;;;4.00;81.70;;;;;;5018977;28;20068;-64
2022/01/25 09:35:25;;;;;;;8.65;4.60;;;4.00;81.50;;;;;;5019419;28;20555;-65
2022/01/25 09:37:51;;;;;;;8.88;4.65;;;4.00;81.00;;;;;;5020967;28;20031;-65
2022/01/25 09:40:18;;;;;;;7.75;4.45;;;4.00;81.60;;;;;;5013489;28;20026;-64
2022/01/25 09:42:44;;;;;;;8.02;4.72;;;4.10;82.00;;;;;;5023790;28;20052;-64
2022/01/25 09:45:10;;;;;;;9.38;4.13;;;4.20;82.20;;;;;;5008540;28;20074;-64
2022/01/25 09:47:39;;;;;;;9.35;4.45;;;4.20;81.70;;;;;;5012984;28;20496;-64
2022/01/25 09:50:06;;;;;;;7.93;4.45;;;4.20;81.40;;;;;;5011161;28;20026;-64
2022/01/25 09:52:32;;;;;;;7.35;4.32;;;4.20;81.60;;;;;;5007837;28;20103;-64
2022/01/25 09:55:01;;;;;;;6.30;4.05;;;4.20;81.70;;;;;;5015228;28;20512;-63
2022/01/25 09:57:27;;;;;;;9.90;5.32;;;4.30;82.00;;;;;;5023197;28;20041;-63
2022/01/25 09:59:55;;;;;;;9.82;5.30;;;4.30;81.30;;;;;;5013051;28;20025;-64
2022/01/25 10:02:51;;;;;;;9.35;5.57;;;4.20;81.40;;;;;;5012846;28;20045;-63
2022/01/25 10:05:27;;;;;;;9.43;4.95;;;4.20;81.00;;;;;;5010942;28;20120;-63
2022/01/25 10:08:11;;;;;;;8.98;5.10;;;4.10;81.10;;;;;;5011035;28;20037;-64
2022/01/25 10:11:01;;;;;;;8.98;4.88;;;4.20;81.70;;;;;;5011650;28;20026;-63
2022/01/25 10:13:36;;;;;;;7.22;4.18;;;4.20;81.60;;;;;;5023218;28;20087;-63
2022/01/25 10:16:07;;;;;;;8.43;5.20;;;4.20;81.50;;;;;;5017404;28;20081;-63
2022/01/25 10:18:50;;;;;;;9.38;5.18;;;4.20;81.00;;;;;;5014825;28;20032;-63
2022/01/25 10:21:29;;;;;;;7.47;4.70;;;4.20;81.00;;;;;;5008611;28;21063;-63
2022/01/25 10:24:07;;;;;;;8.45;4.75;;;4.20;81.00;;;;;;5003486;28;20030;-63
2022/01/25 10:26:34;;;;;;;8.88;4.70;;;4.20;80.80;;;;;;5009772;28;20091;-63
2022/01/25 10:29:00;;;;;;;7.38;3.92;;;4.20;81.00;;;;;;5011811;28;20396;-63
2022/01/25 10:31:44;;;;;;;8.05;4.50;;;4.20;81.60;;;;;;5017342;28;20029;-63
2022/01/25 10:34:12;;;;;;;8.15;4.35;;;4.20;81.40;;;;;;5015025;28;20030;-63
2022/01/25 10:36:45;;;;;;;7.90;4.90;;;4.30;81.70;;;;;;5024010;28;20775;-63
2022/01/25 10:39:11;;;;;;;6.40;4.20;;;4.20;81.80;;;;;;5019477;28;20041;-64
2022/01/25 10:41:38;;;;;;;8.38;4.63;;;4.30;80.90;;;;;;5011575;28;20802;-63
2022/01/25 10:44:06;;;;;;;8.35;4.82;;;4.30;81.60;;;;;;5008916;28;20112;-63
2022/01/25 10:46:33;;;;;;;6.78;4.15;;;4.30;80.90;;;;;;5010684;28;20443;-63
2022/01/25 10:49:09;;;;;;;7.63;4.10;;;4.30;81.20;;;;;;5004721;28;20030;-63
2022/01/25 10:51:41;;;;;;;8.50;4.88;;;4.30;81.70;;;;;;5014103;28;20097;-63
2022/01/25 10:54:16;;;;;;;8.13;4.65;;;4.30;81.40;;;;;;5009133;28;20037;-63
2022/01/25 10:56:49;;;;;;;5.72;3.70;;;4.30;81.00;;;;;;5013092;28;20128;-63
2022/01/25 10:59:22;;;;;;;7.65;4.30;;;4.30;81.40;;;;;;5001677;28;20026;-64
2022/01/25 11:01:56;;;;;;;8.03;5.10;;;4.30;81.70;;;;;;5008611;28;20049;-64
2022/01/25 11:04:29;;;;;;;8.00;4.35;;;4.30;81.50;;;;;;5000386;28;20048;-64
2022/01/25 11:07:03;;;;;;;7.53;4.43;;;4.30;81.70;;;;;;5006264;28;20026;-64
2022/01/25 11:09:36;;;;;;;10.48;5.38;;;4.30;81.60;;;;;;5005923;28;20104;-63
2022/01/25 11:12:05;;;;;;;8.60;5.20;;;4.30;81.60;;;;;;5003604;28;20062;-69
2022/01/25 11:17:15;;;;;;;10.70;5.47;;;4.30;81.80;;;;;;5002255;28;20036;-65
2022/01/25 11:19:42;;;;;;;8.60;5.20;;;4.30;82.00;;;;;;5010395;28;20026;-64
2022/01/25 11:22:10;;;;;;;8.98;5.22;;;4.20;81.70;;;;;;4999913;28;20033;-64
2022/01/25 11:24:38;;;;;;;11.32;6.22;;;4.30;82.70;;;;;;5005057;28;20077;-65
2022/01/25 11:27:06;;;;;;;11.80;7.00;;;4.20;82.20;;;;;;4998778;28;20034;-64
2022/01/25 11:29:35;;;;;;;9.57;6.05;;;4.20;82.40;;;;;;5003608;28;20032;-64
2022/01/25 11:32:09;;;;;;;10.95;6.05;;;4.20;83.10;;;;;;5004062;28;20041;-69
2022/01/25 11:34:37;;;;;;;9.55;5.45;;;4.30;82.70;;;;;;4995279;28;20109;-68
2022/01/25 11:37:07;;;;;;;9.10;5.15;;;4.20;82.70;;;;;;4992993;28;20062;-67
2022/01/25 11:39:34;;;;;;;10.15;5.75;;;4.20;82.90;;;;;;5005865;28;20512;-67
2022/01/25 11:42:13;;;;;;;12.07;6.88;;;4.30;82.80;;;;;;4997753;28;20038;-68
2022/01/25 11:44:57;;;;;;;10.95;6.32;;;4.30;82.90;;;;;;4994788;28;20105;-68
2022/01/25 11:47:37;;;;;;;12.63;6.13;;;4.10;82.70;;;;;;4995089;28;20485;-67
2022/01/25 11:50:10;;;;;;;11.50;5.78;;;4.20;83.60;;;;;;4994278;28;20026;-66
2022/01/25 11:52:45;;;;;;;11.60;6.03;;;4.30;83.70;;;;;;4999209;28;20026;-68
2022/01/25 11:55:32;;;;;;;10.43;5.65;;;4.30;83.40;;;;;;4994027;28;20357;-68
2022/01/25 11:58:06;;;;;;;10.73;5.97;;;4.30;83.10;;;;;;5008571;28;20037;-72
2022/01/25 12:00:46;;;;;;;13.30;6.65;;;4.30;83.50;;;;;;4997586;28;20030;-68
2022/01/25 12:03:22;;;;;;;9.90;5.03;;;4.30;83.30;;;;;;5002404;28;20064;-68
2022/01/25 12:06:21;;;;;;;10.30;5.72;;;4.20;83.20;;;;;;5001228;28;20027;-68
2022/01/25 12:09:15;;;;;;;11.18;5.93;;;4.20;83.80;;;;;;4996867;28;20042;-68
2022/01/25 12:12:09;;;;;;;14.18;7.25;;;4.20;83.80;;;;;;4996782;28;20027;-68
2022/01/25 12:14:54;;;;;;;9.27;5.20;;;4.20;83.90;;;;;;4995658;28;20146;-68
2022/01/25 12:17:20;;;;;;;10.60;5.47;;;4.40;84.30;;;;;;4994919;28;20451;-68
2022/01/25 12:19:51;;;;;;;11.40;5.47;;;4.40;84.10;;;;;;4995749;28;20216;-68
2022/01/25 12:22:40;;;;;;;11.65;6.43;;;4.50;83.90;;;;;;4994292;28;20041;-67
2022/01/25 12:25:23;;;;;;;9.73;5.22;;;4.50;83.40;;;;;;4992374;28;20042;-67
2022/01/25 12:27:54;;;;;;;9.52;5.50;;;4.60;83.40;;;;;;5006685;28;20030;-68
2022/01/25 12:30:32;;;;;;;11.90;5.95;;;4.60;83.80;;;;;;4997573;28;20036;-69
2022/01/25 12:33:03;;;;;;;13.77;7.53;;;4.60;83.50;;;;;;4996524;28;20033;-69
2022/01/25 12:35:52;;;;;;;14.90;7.55;;;4.50;82.90;;;;;;4996191;28;20057;-68
2022/01/25 12:38:24;;;;;;;11.10;6.25;;;4.40;83.40;;;;;;4999125;28;20030;-67
2022/01/25 12:41:04;;;;;;;13.07;7.22;;;4.50;84.20;;;;;;5000252;28;20029;-70
2022/01/25 12:43:38;;;;;;;14.88;7.68;;;4.50;83.80;;;;;;5010756;28;20038;-70
2022/01/25 12:46:16;;;;;;;12.48;7.07;;;4.50;83.80;;;;;;4995676;28;20374;-70
2022/01/25 12:48:48;;;;;;;12.73;6.47;;;4.50;84.00;;;;;;4994296;28;20037;-70
2022/01/25 12:51:22;;;;;;;13.07;7.15;;;4.60;84.20;;;;;;4997353;28;20042;-70
2022/01/25 12:53:50;;;;;;;14.52;8.07;;;4.60;83.90;;;;;;5000029;28;20026;-71
2022/01/25 12:56:21;;;;;;;12.18;6.35;;;4.70;84.20;;;;;;4997145;28;20030;-70
2022/01/25 12:58:52;;;;;;;17.33;9.40;;;4.60;83.70;;;;;;5000616;28;20029;-71
2022/01/25 13:01:20;;;;;;;13.55;6.90;;;4.60;83.90;;;;;;5005977;28;20034;-65
2022/01/25 13:04:00;;;;;;;12.95;7.15;;;4.50;83.70;;;;;;4994209;28;20485;-72
2022/01/25 13:06:31;;;;;;;15.80;8.02;;;4.50;85.10;;;;;;4998502;28;20033;-70
2022/01/25 13:09:09;;;;;;;12.07;6.88;;;4.50;84.20;;;;;;4996746;28;20056;-70
2022/01/25 13:17:25;;;;;;;10.73;5.85;;;4.50;84.20;;;;;;4996644;28;20647;-70
2022/01/25 13:19:55;;;;;;;11.20;6.25;;;4.60;84.70;;;;;;4996333;28;20484;-73
2022/01/25 13:22:27;;;;;;;11.77;6.10;;;4.70;84.90;;;;;;4997140;28;20038;-74
2022/01/25 13:27:46;;;;;;;18.73;8.95;;;4.90;84.30;;;;;;5011398;28;20032;-75
2022/01/25 13:32:57;;;;;;;16.23;7.15;;;4.90;84.60;;;;;;5001408;28;20037;-68
2022/01/25 13:35:33;;;;;;;11.38;6.30;;;4.90;84.00;;;;;;5001408;28;20030;-67
2022/01/25 13:38:21;;;;;;;12.65;6.22;;;4.90;84.30;;;;;;4999883;28;20088;-71
2022/01/25 13:46:23;;;;;;;11.85;6.03;;;4.90;83.70;;;;;;4994754;28;20030;-70
2022/01/25 13:48:50;;;;;;;14.15;7.03;;;4.80;83.80;;;;;;4997104;28;20390;-70
2022/01/25 13:51:21;;;;;;;14.13;5.88;;;4.90;84.10;;;;;;4998590;28;20019;-70
2022/01/25 13:53:57;;;;;;;12.50;6.53;;;4.80;84.00;;;;;;4999353;28;20034;-69
2022/01/25 13:56:26;;;;;;;12.02;6.20;;;4.90;84.20;;;;;;5000195;28;20101;-69
2022/01/25 13:58:52;;;;;;;13.48;6.88;;;4.90;84.40;;;;;;4996173;28;20443;-70
2022/01/25 14:01:23;;;;;;;13.85;7.18;;;4.90;84.30;;;;;;5009026;28;20022;-72
2022/01/25 14:04:06;;;;;;;13.20;6.88;;;4.80;85.20;;;;;;4993190;28;20138;-73
2022/01/25 14:06:39;;;;;;;15.77;7.65;;;4.80;84.20;;;;;;4997447;28;20401;-73
2022/01/25 14:09:09;;;;;;;12.23;5.75;;;4.80;84.30;;;;;;4998613;28;20042;-73
2022/01/25 14:25:27;;;;;;;15.60;7.68;;;5.00;83.80;;;;;;4995253;28;20026;-71
2022/01/25 14:27:56;;;;;;;12.25;6.57;;;4.90;84.00;;;;;;5009461;28;20033;-73
2022/01/25 14:30:22;;;;;;;16.98;7.97;;;5.00;84.40;;;;;;4994924;28;20041;-69
2022/01/25 14:33:11;;;;;;;17.00;8.88;;;5.00;84.40;;;;;;4995335;28;20113;-70
2022/01/25 14:35:56;;;;;;;13.50;6.72;;;5.00;84.10;;;;;;4994845;28;20065;-69
2022/01/25 14:38:28;;;;;;;15.50;7.38;;;5.00;84.40;;;;;;4994281;28;20038;-69
2022/01/25 14:41:04;;;;;;;15.05;7.63;;;5.00;84.40;;;;;;4995446;28;20499;-69
2022/01/25 14:43:36;;;;;;;15.68;7.15;;;4.90;84.40;;;;;;4994790;28;20046;-72
2022/01/25 14:46:27;;;;;;;12.65;6.90;;;4.90;84.70;;;;;;4992695;28;20018;-72
2022/01/25 14:49:08;;;;;;;13.40;5.97;;;4.90;84.40;;;;;;5008828;28;20032;-71
2022/01/25 14:51:41;;;;;;;12.95;6.55;;;5.00;84.70;;;;;;4999636;28;20403;-71
2022/01/25 14:54:09;;;;;;;14.85;6.47;;;5.00;84.40;;;;;;4995551;28;20026;-71
2022/01/25 14:56:47;;;;;;;21.85;9.85;;;5.00;84.30;;;;;;4995034;28;20034;-70
2022/01/25 14:59:27;;;;;;;11.15;6.35;;;4.90;84.40;;;;;;4994377;28;20034;-73
2022/01/25 15:02:05;;;;;;;12.48;6.03;;;5.00;85.20;;;;;;5001591;28;20034;-73
2022/01/25 15:04:38;;;;;;;12.70;6.38;;;5.10;85.00;;;;;;4993226;28;20029;-71
2022/01/25 15:07:13;;;;;;;11.23;5.78;;;5.10;84.70;;;;;;4992367;28;20032;-70
2022/01/25 15:09:48;;;;;;;12.20;6.63;;;5.10;84.50;;;;;;5002161;28;20034;-70
2022/01/25 15:12:17;;;;;;;13.40;7.22;;;5.20;84.60;;;;;;5004795;28;20091;-70
2022/01/25 15:14:57;;;;;;;11.77;6.35;;;5.30;84.60;;;;;;4997946;28;20026;-74
2022/01/25 15:17:22;;;;;;;13.18;7.22;;;5.30;84.20;;;;;;4994895;28;20026;-73
2022/01/25 15:19:48;;;;;;;14.38;7.38;;;5.20;84.30;;;;;;4994534;28;20030;-72
2022/01/25 15:22:16;;;;;;;13.10;7.30;;;5.20;84.50;;;;;;4992891;28;20389;-70
2022/01/25 15:24:44;;;;;;;13.13;7.32;;;5.20;84.50;;;;;;4991801;28;20038;-71
2022/01/25 15:27:10;;;;;;;14.98;7.45;;;5.30;84.70;;;;;;4994569;28;20040;-70
2022/01/25 15:29:36;;;;;;;15.75;7.88;;;5.30;84.30;;;;;;4993322;28;20030;-69